sensor_id;sensor_type;location;lat;lon;timestamp;pressure;altitude;pressure_sealevel;temperature;humidity
74544;BME280;63016;55.030;38.710;2023-08-06T00:00:04;100312.41;;;20.64;56.76
74544;BME280;63016;55.030;38.710;2023-08-06T00:02:30;100298.19;;;20.58;56.89
74544;BME280;63016;55.030;38.710;2023-08-06T00:04:56;100278.38;;;20.42;56.62
74544;BME280;63016;55.030;38.710;2023-08-06T00:07:21;100301.31;;;20.55;56.68
74544;BME280;63016;55.030;38.710;2023-08-06T00:09:47;100306.00;;;20.53;56.81
74544;BME280;63016;55.030;38.710;2023-08-06T00:12:12;100303.78;;;20.50;56.76
74544;BME280;63016;55.030;38.710;2023-08-06T00:14:38;100295.66;;;20.45;56.96
74544;BME280;63016;55.030;38.710;2023-08-06T00:17:03;100297.72;;;20.43;56.98
74544;BME280;63016;55.030;38.710;2023-08-06T00:19:31;100293.66;;;20.40;56.91
74544;BME280;63016;55.030;38.710;2023-08-06T00:21:56;100308.91;;;20.45;56.95
74544;BME280;63016;55.030;38.710;2023-08-06T00:24:22;100300.00;;;20.39;56.78
74544;BME280;63016;55.030;38.710;2023-08-06T00:26:47;100305.94;;;20.35;57.05
74544;BME280;63016;55.030;38.710;2023-08-06T00:29:13;100305.94;;;20.35;57.12
74544;BME280;63016;55.030;38.710;2023-08-06T00:31:38;100310.81;;;20.38;57.22
74544;BME280;63016;55.030;38.710;2023-08-06T00:34:03;100301.25;;;20.37;57.15
74544;BME280;63016;55.030;38.710;2023-08-06T00:36:29;100305.38;;;20.33;57.16
74544;BME280;63016;55.030;38.710;2023-08-06T00:38:54;100308.84;;;20.33;57.00
74544;BME280;63016;55.030;38.710;2023-08-06T00:41:21;100311.09;;;20.29;57.38
74544;BME280;63016;55.030;38.710;2023-08-06T00:43:46;100314.78;;;20.28;57.40
74544;BME280;63016;55.030;38.710;2023-08-06T00:46:12;100320.31;;;20.27;57.34
74544;BME280;63016;55.030;38.710;2023-08-06T00:48:39;100309.09;;;20.25;57.34
74544;BME280;63016;55.030;38.710;2023-08-06T00:51:05;100305.50;;;20.19;57.42
74544;BME280;63016;55.030;38.710;2023-08-06T00:53:30;100299.97;;;20.21;57.16
74544;BME280;63016;55.030;38.710;2023-08-06T00:55:56;100315.28;;;20.19;57.39
74544;BME280;63016;55.030;38.710;2023-08-06T00:58:22;100316.53;;;20.16;57.35
74544;BME280;63016;55.030;38.710;2023-08-06T01:00:48;100314.91;;;20.15;57.36
74544;BME280;63016;55.030;38.710;2023-08-06T01:03:13;100307.59;;;20.11;57.54
74544;BME280;63016;55.030;38.710;2023-08-06T01:05:39;100302.97;;;20.06;57.68
74544;BME280;63016;55.030;38.710;2023-08-06T01:13:33;100326.38;;;20.09;56.62
74544;BME280;63016;55.030;38.710;2023-08-06T01:16:01;100312.59;;;20.00;57.46
74544;BME280;63016;55.030;38.710;2023-08-06T01:18:28;100317.47;;;20.03;57.81
74544;BME280;63016;55.030;38.710;2023-08-06T01:20:53;100324.81;;;20.01;57.82
74544;BME280;63016;55.030;38.710;2023-08-06T01:23:19;100329.28;;;20.01;57.60
74544;BME280;63016;55.030;38.710;2023-08-06T01:28:24;100327.50;;;19.95;57.89
74544;BME280;63016;55.030;38.710;2023-08-06T01:30:55;100331.34;;;19.99;57.69
74544;BME280;63016;55.030;38.710;2023-08-06T01:33:24;100330.72;;;20.03;54.78
74544;BME280;63016;55.030;38.710;2023-08-06T01:35:53;100338.50;;;19.98;57.27
74544;BME280;63016;55.030;38.710;2023-08-06T01:38:20;100338.91;;;19.95;57.79
74544;BME280;63016;55.030;38.710;2023-08-06T01:40:45;100343.81;;;19.92;57.53
74544;BME280;63016;55.030;38.710;2023-08-06T01:43:11;100340.59;;;19.90;57.70
74544;BME280;63016;55.030;38.710;2023-08-06T01:45:36;100340.00;;;19.88;58.00
74544;BME280;63016;55.030;38.710;2023-08-06T01:48:02;100348.97;;;19.87;58.03
74544;BME280;63016;55.030;38.710;2023-08-06T01:50:27;100327.84;;;19.80;58.17
74544;BME280;63016;55.030;38.710;2023-08-06T01:52:53;100331.06;;;19.82;58.27
74544;BME280;63016;55.030;38.710;2023-08-06T01:55:18;100338.38;;;19.87;58.23
74544;BME280;63016;55.030;38.710;2023-08-06T01:57:44;100342.03;;;19.86;58.14
74544;BME280;63016;55.030;38.710;2023-08-06T02:00:10;100342.03;;;19.86;58.42
74544;BME280;63016;55.030;38.710;2023-08-06T02:02:36;100314.25;;;19.70;58.47
74544;BME280;63016;55.030;38.710;2023-08-06T02:05:01;100339.63;;;19.84;58.39
74544;BME280;63016;55.030;38.710;2023-08-06T02:07:27;100329.50;;;19.74;58.58
74544;BME280;63016;55.030;38.710;2023-08-06T02:09:52;100335.56;;;19.82;58.41
74544;BME280;63016;55.030;38.710;2023-08-06T02:12:18;100337.19;;;19.83;58.47
74544;BME280;63016;55.030;38.710;2023-08-06T02:14:43;100331.13;;;19.75;58.49
74544;BME280;63016;55.030;38.710;2023-08-06T02:17:09;100344.13;;;19.84;58.69
74544;BME280;63016;55.030;38.710;2023-08-06T02:19:34;100345.34;;;19.81;58.80
74544;BME280;63016;55.030;38.710;2023-08-06T02:22:00;100341.50;;;19.77;58.78
74544;BME280;63016;55.030;38.710;2023-08-06T02:24:25;100356.09;;;19.86;58.92
74544;BME280;63016;55.030;38.710;2023-08-06T02:26:50;100355.13;;;19.81;58.80
74544;BME280;63016;55.030;38.710;2023-08-06T02:29:17;100374.59;;;19.93;59.32
74544;BME280;63016;55.030;38.710;2023-08-06T02:31:43;100374.38;;;19.94;59.36
74544;BME280;63016;55.030;38.710;2023-08-06T02:34:08;100374.97;;;19.96;59.27
74544;BME280;63016;55.030;38.710;2023-08-06T02:36:34;100379.84;;;19.99;59.19
74544;BME280;63016;55.030;38.710;2023-08-06T02:38:59;100372.28;;;20.03;59.33
74544;BME280;63016;55.030;38.710;2023-08-06T02:41:25;100372.94;;;19.98;59.35
74544;BME280;63016;55.030;38.710;2023-08-06T02:43:50;100353.41;;;19.93;59.51
74544;BME280;63016;55.030;38.710;2023-08-06T02:46:16;100355.19;;;19.99;59.46
74544;BME280;63016;55.030;38.710;2023-08-06T02:48:41;100374.84;;;20.16;59.91
74544;BME280;63016;55.030;38.710;2023-08-06T02:51:07;100380.50;;;20.20;59.90
74544;BME280;63016;55.030;38.710;2023-08-06T02:53:32;100375.19;;;20.20;59.70
74544;BME280;63016;55.030;38.710;2023-08-06T02:55:58;100377.97;;;20.32;60.04
74544;BME280;63016;55.030;38.710;2023-08-06T02:58:24;100380.97;;;20.35;60.25
74544;BME280;63016;55.030;38.710;2023-08-06T03:01:06;100370.75;;;20.39;59.35
74544;BME280;63016;55.030;38.710;2023-08-06T03:03:32;100368.88;;;20.46;60.42
74544;BME280;63016;55.030;38.710;2023-08-06T03:05:58;100368.88;;;20.46;60.28
74544;BME280;63016;55.030;38.710;2023-08-06T03:08:24;100375.53;;;20.55;60.66
74544;BME280;63016;55.030;38.710;2023-08-06T03:10:50;100378.09;;;20.62;60.56
74544;BME280;63016;55.030;38.710;2023-08-06T03:13:17;100379.06;;;20.67;60.48
74544;BME280;63016;55.030;38.710;2023-08-06T03:15:43;100372.53;;;20.70;60.83
74544;BME280;63016;55.030;38.710;2023-08-06T03:18:09;100367.00;;;20.71;60.59
74544;BME280;63016;55.030;38.710;2023-08-06T03:20:34;100374.22;;;20.83;60.74
74544;BME280;63016;55.030;38.710;2023-08-06T03:23:00;100372.50;;;20.88;60.93
74544;BME280;63016;55.030;38.710;2023-08-06T03:25:25;100363.53;;;20.89;60.91
74544;BME280;63016;55.030;38.710;2023-08-06T03:27:51;100378.13;;;20.98;61.03
74544;BME280;63016;55.030;38.710;2023-08-06T03:30:16;100372.72;;;21.05;61.58
74544;BME280;63016;55.030;38.710;2023-08-06T03:32:42;100370.22;;;21.10;61.72
74544;BME280;63016;55.030;38.710;2023-08-06T03:35:07;100343.41;;;21.00;61.84
74544;BME280;63016;55.030;38.710;2023-08-06T03:37:33;100356.53;;;21.13;61.75
74544;BME280;63016;55.030;38.710;2023-08-06T03:39:59;100347.28;;;21.16;61.95
74544;BME280;63016;55.030;38.710;2023-08-06T03:42:24;100362.63;;;21.32;61.88
74544;BME280;63016;55.030;38.710;2023-08-06T03:44:50;100360.69;;;21.39;62.23
74544;BME280;63016;55.030;38.710;2023-08-06T03:47:15;100364.41;;;21.50;62.03
74544;BME280;63016;55.030;38.710;2023-08-06T03:49:41;100373.44;;;21.61;62.21
74544;BME280;63016;55.030;38.710;2023-08-06T03:52:09;100373.38;;;21.67;62.07
74544;BME280;63016;55.030;38.710;2023-08-06T03:54:34;100368.56;;;21.76;62.39
74544;BME280;63016;55.030;38.710;2023-08-06T03:57:00;100369.25;;;21.83;62.12
74544;BME280;63016;55.030;38.710;2023-08-06T03:59:25;100370.78;;;21.91;61.96
74544;BME280;63016;55.030;38.710;2023-08-06T04:01:50;100370.44;;;21.99;62.44
74544;BME280;63016;55.030;38.710;2023-08-06T04:04:16;100368.00;;;22.09;62.18
74544;BME280;63016;55.030;38.710;2023-08-06T04:06:41;100361.34;;;22.18;62.33
74544;BME280;63016;55.030;38.710;2023-08-06T04:09:07;100374.88;;;22.28;62.42
74544;BME280;63016;55.030;38.710;2023-08-06T04:11:32;100363.91;;;22.37;62.07
74544;BME280;63016;55.030;38.710;2023-08-06T04:13:58;100360.91;;;22.45;62.06
74544;BME280;63016;55.030;38.710;2023-08-06T04:16:23;100362.63;;;22.51;62.02
74544;BME280;63016;55.030;38.710;2023-08-06T04:18:51;100352.81;;;22.51;61.85
74544;BME280;63016;55.030;38.710;2023-08-06T04:21:18;100358.34;;;22.62;62.31
74544;BME280;63016;55.030;38.710;2023-08-06T04:23:43;100372.19;;;22.75;61.90
74544;BME280;63016;55.030;38.710;2023-08-06T04:26:09;100371.84;;;22.83;62.11
74544;BME280;63016;55.030;38.710;2023-08-06T04:28:34;100358.06;;;22.87;62.00
74544;BME280;63016;55.030;38.710;2023-08-06T04:31:00;100368.00;;;23.03;62.13
74544;BME280;63016;55.030;38.710;2023-08-06T04:33:25;100368.69;;;23.10;62.02
74544;BME280;63016;55.030;38.710;2023-08-06T04:35:54;100364.69;;;23.24;62.07
74544;BME280;63016;55.030;38.710;2023-08-06T04:38:24;100358.75;;;23.34;62.08
74544;BME280;63016;55.030;38.710;2023-08-06T04:40:50;100358.94;;;23.44;61.40
74544;BME280;63016;55.030;38.710;2023-08-06T04:43:16;100358.09;;;23.55;61.68
74544;BME280;63016;55.030;38.710;2023-08-06T04:45:51;100358.50;;;23.64;61.33
74544;BME280;63016;55.030;38.710;2023-08-06T04:48:18;100367.72;;;23.73;62.04
74544;BME280;63016;55.030;38.710;2023-08-06T04:50:45;100360.41;;;23.80;61.69
74544;BME280;63016;55.030;38.710;2023-08-06T04:53:11;100356.22;;;23.84;61.26
74544;BME280;63016;55.030;38.710;2023-08-06T04:55:36;100367.38;;;23.98;61.34
74544;BME280;63016;55.030;38.710;2023-08-06T04:58:02;100368.88;;;24.11;61.60
74544;BME280;63016;55.030;38.710;2023-08-06T05:00:27;100360.22;;;24.21;61.56
74544;BME280;63016;55.030;38.710;2023-08-06T05:02:53;100360.88;;;24.28;61.43
74544;BME280;63016;55.030;38.710;2023-08-06T05:05:18;100355.47;;;24.40;61.77
74544;BME280;63016;55.030;38.710;2023-08-06T05:07:47;100354.94;;;24.59;61.93
74544;BME280;63016;55.030;38.710;2023-08-06T05:10:13;100340.66;;;24.71;61.84
74544;BME280;63016;55.030;38.710;2023-08-06T05:12:39;100344.91;;;24.88;61.10
74544;BME280;63016;55.030;38.710;2023-08-06T05:15:04;100348.53;;;25.04;61.24
74544;BME280;63016;55.030;38.710;2023-08-06T05:17:30;100328.91;;;25.10;61.50
74544;BME280;63016;55.030;38.710;2023-08-06T05:19:55;100345.41;;;25.29;61.62
74544;BME280;63016;55.030;38.710;2023-08-06T05:22:21;100339.13;;;25.46;61.08
74544;BME280;63016;55.030;38.710;2023-08-06T05:24:46;100340.03;;;25.56;61.24
74544;BME280;63016;55.030;38.710;2023-08-06T05:27:12;100339.34;;;25.71;61.10
74544;BME280;63016;55.030;38.710;2023-08-06T05:29:37;100337.91;;;25.85;60.71
74544;BME280;63016;55.030;38.710;2023-08-06T05:32:03;100349.72;;;25.95;60.67
74544;BME280;63016;55.030;38.710;2023-08-06T05:34:29;100341.53;;;26.06;60.56
74544;BME280;63016;55.030;38.710;2023-08-06T05:36:54;100338.94;;;26.17;60.51
74544;BME280;63016;55.030;38.710;2023-08-06T05:39:20;100343.56;;;26.31;60.74
74544;BME280;63016;55.030;38.710;2023-08-06T05:41:45;100349.56;;;26.49;60.12
74544;BME280;63016;55.030;38.710;2023-08-06T05:44:10;100345.91;;;26.60;60.25
74544;BME280;63016;55.030;38.710;2023-08-06T05:46:36;100342.19;;;26.71;60.29
74544;BME280;63016;55.030;38.710;2023-08-06T05:49:02;100350.28;;;26.86;59.93
74544;BME280;63016;55.030;38.710;2023-08-06T05:51:27;100351.41;;;27.01;60.33
74544;BME280;63016;55.030;38.710;2023-08-06T05:53:53;100343.44;;;27.16;59.81
74544;BME280;63016;55.030;38.710;2023-08-06T05:56:19;100348.56;;;27.28;59.29
74544;BME280;63016;55.030;38.710;2023-08-06T05:58:44;100347.50;;;27.39;59.21
74544;BME280;63016;55.030;38.710;2023-08-06T06:01:12;100347.78;;;27.53;58.86
74544;BME280;63016;55.030;38.710;2023-08-06T06:03:37;100347.00;;;27.67;59.38
74544;BME280;63016;55.030;38.710;2023-08-06T06:06:03;100341.38;;;27.79;58.95
74544;BME280;63016;55.030;38.710;2023-08-06T06:08:28;100333.59;;;27.93;59.12
74544;BME280;63016;55.030;38.710;2023-08-06T06:10:54;100335.22;;;28.09;58.73
74544;BME280;63016;55.030;38.710;2023-08-06T06:13:19;100330.06;;;28.23;58.50
74544;BME280;63016;55.030;38.710;2023-08-06T06:15:46;100329.00;;;28.34;58.56
74544;BME280;63016;55.030;38.710;2023-08-06T06:18:12;100329.25;;;28.48;57.74
74544;BME280;63016;55.030;38.710;2023-08-06T06:20:38;100333.75;;;28.63;58.17
74544;BME280;63016;55.030;38.710;2023-08-06T06:23:03;100330.22;;;28.73;57.24
74544;BME280;63016;55.030;38.710;2023-08-06T06:25:29;100333.13;;;28.81;57.56
74544;BME280;63016;55.030;38.710;2023-08-06T06:27:54;100336.03;;;28.90;56.15
74544;BME280;63016;55.030;38.710;2023-08-06T06:30:20;100330.41;;;28.91;56.71
74544;BME280;63016;55.030;38.710;2023-08-06T06:32:45;100331.72;;;28.99;57.23
74544;BME280;63016;55.030;38.710;2023-08-06T06:35:12;100328.44;;;29.12;57.73
74544;BME280;63016;55.030;38.710;2023-08-06T06:37:37;100324.28;;;29.25;56.80
74544;BME280;63016;55.030;38.710;2023-08-06T06:40:03;100308.94;;;29.36;57.10
74544;BME280;63016;55.030;38.710;2023-08-06T06:42:29;100318.00;;;29.45;56.27
74544;BME280;63016;55.030;38.710;2023-08-06T06:44:55;100316.59;;;29.53;56.46
74544;BME280;63016;55.030;38.710;2023-08-06T06:47:20;100314.38;;;29.65;55.92
74544;BME280;63016;55.030;38.710;2023-08-06T06:49:46;100321.31;;;29.71;56.02
74544;BME280;63016;55.030;38.710;2023-08-06T06:52:11;100315.84;;;29.81;56.39
74544;BME280;63016;55.030;38.710;2023-08-06T06:54:37;100306.06;;;29.90;55.53
74544;BME280;63016;55.030;38.710;2023-08-06T06:57:02;100310.31;;;29.96;55.86
74544;BME280;63016;55.030;38.710;2023-08-06T06:59:28;100321.75;;;30.07;55.72
74544;BME280;63016;55.030;38.710;2023-08-06T07:01:53;100315.28;;;30.13;55.67
74544;BME280;63016;55.030;38.710;2023-08-06T07:04:19;100311.16;;;30.21;55.92
74544;BME280;63016;55.030;38.710;2023-08-06T07:06:44;100314.56;;;30.32;55.84
74544;BME280;63016;55.030;38.710;2023-08-06T07:09:10;100324.41;;;30.41;55.55
74544;BME280;63016;55.030;38.710;2023-08-06T07:11:35;100317.28;;;30.51;54.72
74544;BME280;63016;55.030;38.710;2023-08-06T07:14:01;100310.53;;;30.53;54.31
74544;BME280;63016;55.030;38.710;2023-08-06T07:16:27;100322.56;;;30.61;55.01
74544;BME280;63016;55.030;38.710;2023-08-06T07:18:53;100314.88;;;30.73;54.95
74544;BME280;63016;55.030;38.710;2023-08-06T07:21:19;100318.53;;;30.82;55.12
74544;BME280;63016;55.030;38.710;2023-08-06T07:23:45;100310.94;;;30.84;53.73
74544;BME280;63016;55.030;38.710;2023-08-06T07:26:10;100303.66;;;30.85;54.14
74544;BME280;63016;55.030;38.710;2023-08-06T07:28:36;100312.19;;;30.92;54.61
74544;BME280;63016;55.030;38.710;2023-08-06T07:31:03;100312.34;;;31.01;53.55
74544;BME280;63016;55.030;38.710;2023-08-06T07:33:29;100310.69;;;31.05;54.21
74544;BME280;63016;55.030;38.710;2023-08-06T07:35:54;100311.69;;;31.09;53.64
74544;BME280;63016;55.030;38.710;2023-08-06T07:38:20;100311.59;;;31.14;54.00
74544;BME280;63016;55.030;38.710;2023-08-06T07:40:46;100304.28;;;31.19;54.02
74544;BME280;63016;55.030;38.710;2023-08-06T07:43:12;100308.44;;;31.31;53.87
74544;BME280;63016;55.030;38.710;2023-08-06T07:45:37;100312.63;;;31.37;53.67
74544;BME280;63016;55.030;38.710;2023-08-06T07:48:04;100310.09;;;31.45;53.23
74544;BME280;63016;55.030;38.710;2023-08-06T07:50:30;100295.09;;;31.39;53.01
74544;BME280;63016;55.030;38.710;2023-08-06T07:52:55;100292.31;;;31.44;53.35
74544;BME280;63016;55.030;38.710;2023-08-06T07:55:21;100276.69;;;31.41;53.03
74544;BME280;63016;55.030;38.710;2023-08-06T07:57:46;100294.25;;;31.58;53.03
74544;BME280;63016;55.030;38.710;2023-08-06T08:00:12;100300.84;;;31.65;52.31
74544;BME280;63016;55.030;38.710;2023-08-06T08:02:38;100285.06;;;31.59;52.46
74544;BME280;63016;55.030;38.710;2023-08-06T08:05:05;100296.78;;;31.68;52.36
74544;BME280;63016;55.030;38.710;2023-08-06T08:07:32;100292.88;;;31.74;52.06
74544;BME280;63016;55.030;38.710;2023-08-06T08:09:58;100302.78;;;31.79;52.06
74544;BME280;63016;55.030;38.710;2023-08-06T08:12:24;100298.19;;;31.79;52.10
74544;BME280;63016;55.030;38.710;2023-08-06T08:14:49;100294.38;;;31.80;51.95
74544;BME280;63016;55.030;38.710;2023-08-06T08:17:18;100299.22;;;31.83;52.60
74544;BME280;63016;55.030;38.710;2023-08-06T08:19:43;100290.25;;;31.88;52.05
74544;BME280;63016;55.030;38.710;2023-08-06T08:22:09;100289.34;;;31.92;51.72
74544;BME280;63016;55.030;38.710;2023-08-06T08:24:34;100289.25;;;31.97;52.54
74544;BME280;63016;55.030;38.710;2023-08-06T08:27:00;100286.44;;;32.03;51.54
74544;BME280;63016;55.030;38.710;2023-08-06T08:29:25;100287.47;;;32.07;51.90
74544;BME280;63016;55.030;38.710;2023-08-06T08:31:54;100280.94;;;32.08;51.71
74544;BME280;63016;55.030;38.710;2023-08-06T08:34:19;100278.16;;;32.13;51.19
74544;BME280;63016;55.030;38.710;2023-08-06T08:36:46;100277.84;;;32.14;51.69
74544;BME280;63016;55.030;38.710;2023-08-06T08:39:13;100286.63;;;32.20;51.71
74544;BME280;63016;55.030;38.710;2023-08-06T08:41:39;100279.44;;;32.15;50.63
74544;BME280;63016;55.030;38.710;2023-08-06T08:44:08;100271.34;;;32.15;50.91
74544;BME280;63016;55.030;38.710;2023-08-06T08:46:39;100273.66;;;32.22;51.28
74544;BME280;63016;55.030;38.710;2023-08-06T08:49:05;100270.66;;;32.23;51.30
74544;BME280;63016;55.030;38.710;2023-08-06T08:51:33;100269.53;;;32.24;51.18
74544;BME280;63016;55.030;38.710;2023-08-06T08:53:59;100276.88;;;32.38;51.11
74544;BME280;63016;55.030;38.710;2023-08-06T08:56:27;100274.06;;;32.43;51.69
74544;BME280;63016;55.030;38.710;2023-08-06T08:58:53;100267.66;;;32.53;51.62
74544;BME280;63016;55.030;38.710;2023-08-06T09:01:21;100276.44;;;32.58;51.35
74544;BME280;63016;55.030;38.710;2023-08-06T09:03:47;100270.44;;;32.61;51.16
74544;BME280;63016;55.030;38.710;2023-08-06T09:06:14;100270.00;;;32.68;50.46
74544;BME280;63016;55.030;38.710;2023-08-06T09:09:11;100274.22;;;32.74;51.12
74544;BME280;63016;55.030;38.710;2023-08-06T09:11:39;100272.19;;;32.80;50.55
74544;BME280;63016;55.030;38.710;2023-08-06T09:14:07;100271.56;;;32.83;51.24
74544;BME280;63016;55.030;38.710;2023-08-06T09:16:36;100270.38;;;32.89;50.54
74544;BME280;63016;55.030;38.710;2023-08-06T09:19:11;100267.28;;;32.95;51.36
74544;BME280;63016;55.030;38.710;2023-08-06T09:21:41;100267.03;;;33.06;50.23
74544;BME280;63016;55.030;38.710;2023-08-06T09:24:14;100248.03;;;32.97;49.52
74544;BME280;63016;55.030;38.710;2023-08-06T09:26:41;100253.75;;;32.95;49.59
74544;BME280;63016;55.030;38.710;2023-08-06T09:29:08;100241.56;;;32.84;49.49
74544;BME280;63016;55.030;38.710;2023-08-06T09:31:54;100263.34;;;33.02;50.69
74544;BME280;63016;55.030;38.710;2023-08-06T09:34:23;100259.56;;;33.03;49.32
74544;BME280;63016;55.030;38.710;2023-08-06T09:36:51;100226.94;;;32.85;49.62
74544;BME280;63016;55.030;38.710;2023-08-06T09:39:18;100238.44;;;32.91;49.32
74544;BME280;63016;55.030;38.710;2023-08-06T09:41:44;100253.63;;;33.00;48.93
74544;BME280;63016;55.030;38.710;2023-08-06T09:44:16;100228.03;;;32.84;49.33
74544;BME280;63016;55.030;38.710;2023-08-06T09:46:49;100217.97;;;32.76;49.05
74544;BME280;63016;55.030;38.710;2023-08-06T09:49:16;100221.84;;;32.84;48.90
74544;BME280;63016;55.030;38.710;2023-08-06T09:51:41;100213.09;;;32.87;48.87
74544;BME280;63016;55.030;38.710;2023-08-06T09:54:08;100243.09;;;33.13;49.06
74544;BME280;63016;55.030;38.710;2023-08-06T09:56:37;100224.75;;;33.10;49.36
74544;BME280;63016;55.030;38.710;2023-08-06T09:59:06;100219.16;;;33.06;49.55
74544;BME280;63016;55.030;38.710;2023-08-06T10:01:35;100207.19;;;32.98;48.79
74544;BME280;63016;55.030;38.710;2023-08-06T10:04:03;100223.03;;;33.14;48.40
74544;BME280;63016;55.030;38.710;2023-08-06T10:06:31;100219.22;;;33.15;48.63
74544;BME280;63016;55.030;38.710;2023-08-06T10:08:58;100206.19;;;33.17;48.16
74544;BME280;63016;55.030;38.710;2023-08-06T10:11:24;100189.47;;;33.15;48.36
74544;BME280;63016;55.030;38.710;2023-08-06T10:13:57;100213.28;;;33.35;48.81
74544;BME280;63016;55.030;38.710;2023-08-06T10:16:24;100195.75;;;33.24;47.78
74544;BME280;63016;55.030;38.710;2023-08-06T10:18:50;100213.94;;;33.32;47.76
74544;BME280;63016;55.030;38.710;2023-08-06T10:21:17;100215.00;;;33.31;47.75
74544;BME280;63016;55.030;38.710;2023-08-06T10:23:42;100213.28;;;33.35;47.22
74544;BME280;63016;55.030;38.710;2023-08-06T10:26:08;100214.50;;;33.43;48.05
74544;BME280;63016;55.030;38.710;2023-08-06T10:28:37;100194.22;;;33.40;47.84
74544;BME280;63016;55.030;38.710;2023-08-06T10:31:04;100179.13;;;33.39;47.18
74544;BME280;63016;55.030;38.710;2023-08-06T10:33:45;100185.41;;;33.48;48.11
74544;BME280;63016;55.030;38.710;2023-08-06T10:36:12;100202.00;;;33.64;47.53
74544;BME280;63016;55.030;38.710;2023-08-06T10:38:48;100196.16;;;33.71;48.74
74544;BME280;63016;55.030;38.710;2023-08-06T10:41:27;100197.09;;;33.75;48.66
74544;BME280;63016;55.030;38.710;2023-08-06T10:44:05;100186.47;;;33.79;47.94
74544;BME280;63016;55.030;38.710;2023-08-06T10:46:32;100178.94;;;33.67;46.96
74544;BME280;63016;55.030;38.710;2023-08-06T10:48:58;100178.00;;;33.71;46.75
74544;BME280;63016;55.030;38.710;2023-08-06T10:51:23;100168.78;;;33.72;46.80
74544;BME280;63016;55.030;38.710;2023-08-06T10:53:50;100188.88;;;33.89;46.70
74544;BME280;63016;55.030;38.710;2023-08-06T10:56:20;100190.66;;;33.93;46.88
74544;BME280;63016;55.030;38.710;2023-08-06T10:58:48;100169.28;;;33.83;46.28
74544;BME280;63016;55.030;38.710;2023-08-06T11:01:14;100172.50;;;33.85;46.42
74544;BME280;63016;55.030;38.710;2023-08-06T11:03:45;100174.50;;;33.80;46.64
74544;BME280;63016;55.030;38.710;2023-08-06T11:06:11;100179.81;;;33.93;46.19
74544;BME280;63016;55.030;38.710;2023-08-06T11:08:38;100189.28;;;34.05;45.89
74544;BME280;63016;55.030;38.710;2023-08-06T11:11:13;100182.09;;;34.00;46.32
74544;BME280;63016;55.030;38.710;2023-08-06T11:13:43;100149.06;;;33.81;47.36
74544;BME280;63016;55.030;38.710;2023-08-06T11:16:12;100174.13;;;34.04;46.51
74544;BME280;63016;55.030;38.710;2023-08-06T11:18:37;100183.06;;;34.13;46.53
74544;BME280;63016;55.030;38.710;2023-08-06T11:21:03;100160.13;;;34.01;47.09
74544;BME280;63016;55.030;38.710;2023-08-06T11:23:29;100159.34;;;34.01;46.09
74544;BME280;63016;55.030;38.710;2023-08-06T11:25:56;100170.94;;;34.01;45.93
74544;BME280;63016;55.030;38.710;2023-08-06T11:28:22;100154.84;;;33.96;45.89
74544;BME280;63016;55.030;38.710;2023-08-06T11:30:48;100178.78;;;34.12;46.39
74544;BME280;63016;55.030;38.710;2023-08-06T11:33:14;100174.78;;;34.18;45.95
74544;BME280;63016;55.030;38.710;2023-08-06T11:35:40;100152.47;;;34.04;45.79
74544;BME280;63016;55.030;38.710;2023-08-06T11:38:06;100168.44;;;34.14;45.76
74544;BME280;63016;55.030;38.710;2023-08-06T11:40:32;100171.63;;;34.16;45.34
74544;BME280;63016;55.030;38.710;2023-08-06T11:42:58;100146.13;;;33.99;45.39
74544;BME280;63016;55.030;38.710;2023-08-06T11:45:24;100159.50;;;34.05;45.03
74544;BME280;63016;55.030;38.710;2023-08-06T11:47:51;100161.41;;;33.95;45.34
74544;BME280;63016;55.030;38.710;2023-08-06T11:50:26;100150.84;;;33.85;46.16
74544;BME280;63016;55.030;38.710;2023-08-06T11:52:59;100133.91;;;33.71;45.50
74544;BME280;63016;55.030;38.710;2023-08-06T11:55:29;100138.97;;;33.64;45.92
74544;BME280;63016;55.030;38.710;2023-08-06T11:57:57;100142.50;;;33.73;45.65
74544;BME280;63016;55.030;38.710;2023-08-06T12:00:24;100146.97;;;33.78;46.75
74544;BME280;63016;55.030;38.710;2023-08-06T12:02:51;100139.03;;;33.81;45.75
74544;BME280;63016;55.030;38.710;2023-08-06T12:05:21;100145.88;;;33.87;45.15
74544;BME280;63016;55.030;38.710;2023-08-06T12:07:50;100137.78;;;33.87;45.44
74544;BME280;63016;55.030;38.710;2023-08-06T12:10:17;100143.03;;;33.92;45.10
74544;BME280;63016;55.030;38.710;2023-08-06T12:12:45;100124.53;;;33.77;44.72
74544;BME280;63016;55.030;38.710;2023-08-06T12:15:11;100136.34;;;33.81;45.18
74544;BME280;63016;55.030;38.710;2023-08-06T12:17:37;100137.09;;;33.73;44.88
74544;BME280;63016;55.030;38.710;2023-08-06T12:20:04;100119.56;;;33.62;43.69
74544;BME280;63016;55.030;38.710;2023-08-06T12:22:30;100118.09;;;33.56;44.81
74544;BME280;63016;55.030;38.710;2023-08-06T12:25:05;100107.59;;;33.54;45.58
74544;BME280;63016;55.030;38.710;2023-08-06T12:27:44;100108.41;;;33.63;45.64
74544;BME280;63016;55.030;38.710;2023-08-06T12:30:11;100125.78;;;33.80;45.50
74544;BME280;63016;55.030;38.710;2023-08-06T12:32:37;100114.31;;;33.74;45.32
74544;BME280;63016;55.030;38.710;2023-08-06T12:35:03;100114.34;;;33.83;44.97
74544;BME280;63016;55.030;38.710;2023-08-06T12:37:30;100089.97;;;33.74;44.12
74544;BME280;63016;55.030;38.710;2023-08-06T12:39:55;100114.38;;;33.91;44.52
74544;BME280;63016;55.030;38.710;2023-08-06T12:42:21;100094.16;;;33.80;44.42
74544;BME280;63016;55.030;38.710;2023-08-06T12:44:48;100091.28;;;33.85;44.81